createdAt,value
2023-04-01T00:00:57.294Z,39.29
2023-04-01T00:01:57.369Z,39.31
2023-04-01T00:02:57.674Z,39.35
2023-04-01T00:03:57.633Z,39.36
2023-04-01T00:04:57.624Z,39.28
2023-04-01T00:05:57.704Z,39.30
2023-04-01T00:06:57.776Z,39.32
2023-04-01T00:07:57.848Z,39.32
2023-04-01T00:08:57.950Z,39.35
2023-04-01T00:09:58.008Z,39.27
2023-04-01T00:10:58.315Z,39.29
2023-04-01T00:11:58.158Z,39.39
2023-04-01T00:12:58.234Z,39.40
2023-04-01T00:14:04.584Z,39.25
2023-04-01T00:14:58.369Z,39.38
2023-04-01T00:15:59.987Z,39.34
2023-04-01T00:16:58.562Z,39.33
2023-04-01T00:17:58.653Z,39.35
2023-04-01T00:18:58.680Z,39.34
2023-04-01T00:19:58.764Z,39.32
2023-04-01T00:20:58.838Z,39.33
2023-04-01T00:21:58.912Z,39.33
2023-04-01T00:22:59.039Z,39.37
2023-04-01T00:23:59.095Z,39.30
2023-04-01T00:24:59.173Z,39.34
2023-04-01T00:25:59.233Z,39.42
2023-04-01T00:26:59.315Z,39.36
2023-04-01T00:27:59.386Z,39.32
2023-04-01T00:28:59.502Z,39.29
2023-04-01T00:29:59.587Z,39.34
2023-04-01T00:30:59.676Z,39.35
2023-04-01T00:31:59.803Z,39.37
2023-04-01T00:32:59.850Z,39.35
2023-04-01T00:33:59.883Z,39.29
2023-04-01T00:34:59.959Z,39.36
2023-04-01T00:36:00.123Z,39.32
2023-04-01T00:37:00.136Z,39.33
2023-04-01T00:38:00.208Z,39.32
2023-04-01T00:39:00.318Z,39.34
2023-04-01T00:40:00.446Z,39.35
2023-04-01T00:41:00.480Z,39.32
2023-04-01T00:42:00.573Z,39.29
2023-04-01T00:43:00.641Z,39.37
2023-04-01T00:44:00.710Z,39.32
2023-04-01T00:45:06.756Z,39.38
2023-04-01T00:46:00.851Z,39.39
2023-04-01T00:47:01.051Z,39.35
2023-04-01T00:48:01.080Z,39.38
2023-04-01T00:49:01.111Z,39.44
2023-04-01T00:50:01.202Z,39.32
2023-04-01T00:51:01.277Z,39.33
2023-04-01T00:52:01.325Z,39.35
2023-04-01T00:53:01.417Z,39.33
2023-04-01T00:54:01.491Z,39.36
2023-04-01T00:55:01.560Z,39.36
2023-04-01T00:56:01.636Z,39.41
2023-04-01T00:57:01.786Z,39.36
2023-04-01T00:58:01.791Z,39.36
2023-04-01T00:59:01.894Z,39.40
2023-04-01T01:00:01.945Z,39.35
2023-04-01T01:01:02.088Z,39.37
2023-04-01T01:02:02.154Z,39.41
2023-04-01T01:03:02.220Z,39.34
2023-04-01T01:04:02.288Z,39.42
2023-04-01T01:05:02.353Z,39.40
2023-04-01T01:06:02.434Z,39.38
2023-04-01T01:07:02.514Z,39.42
2023-04-01T01:08:02.595Z,39.42
2023-04-01T01:09:02.683Z,39.37
2023-04-01T01:10:02.799Z,39.37
2023-04-01T01:11:02.867Z,39.38
2023-04-01T01:12:02.941Z,39.40
2023-04-01T01:13:03.015Z,39.39
2023-04-01T01:14:03.105Z,39.37
2023-04-01T01:15:03.215Z,39.37
2023-04-01T01:16:09.336Z,39.40
2023-04-01T01:17:03.357Z,39.40
2023-04-01T01:18:03.506Z,39.43
2023-04-01T01:19:03.538Z,39.39
2023-04-01T01:20:07.671Z,39.44
2023-04-01T01:21:03.696Z,39.41
2023-04-01T01:22:03.735Z,39.47
2023-04-01T01:23:03.813Z,39.43
2023-04-01T01:24:03.894Z,39.42
2023-04-01T01:25:03.973Z,39.38
2023-04-01T01:26:04.052Z,39.39
2023-04-01T01:27:04.125Z,39.42
2023-04-01T01:28:04.207Z,39.39
2023-04-01T01:29:04.277Z,39.37
2023-04-01T01:30:04.346Z,39.39
2023-04-01T01:31:04.470Z,39.40
2023-04-01T01:32:04.512Z,39.46
2023-04-01T01:33:04.621Z,39.40
2023-04-01T01:34:04.687Z,39.42
2023-04-01T01:35:04.771Z,39.39
2023-04-01T01:36:04.851Z,39.39
2023-04-01T01:37:04.933Z,39.42
2023-04-01T01:38:04.965Z,39.41
2023-04-01T01:39:05.046Z,39.35
2023-04-01T01:40:05.125Z,39.43
2023-04-01T01:41:05.200Z,39.40
2023-04-01T01:42:05.294Z,39.43
2023-04-01T01:43:05.386Z,39.41
2023-04-01T01:44:05.457Z,39.43
2023-04-01T01:45:05.554Z,39.39
2023-04-01T01:46:05.663Z,39.42
2023-04-01T01:47:11.716Z,39.43
2023-04-01T01:48:05.845Z,39.47
2023-04-01T01:49:06.103Z,39.41
2023-04-01T01:50:05.957Z,39.38
2023-04-01T01:51:06.071Z,39.38
2023-04-01T01:52:06.121Z,39.43
2023-04-01T01:53:06.201Z,39.43
2023-04-01T01:54:06.278Z,39.40
2023-04-01T01:55:06.366Z,39.39
2023-04-01T01:56:06.448Z,39.41
2023-04-01T01:57:06.538Z,39.46
2023-04-01T01:58:06.620Z,39.40
2023-04-01T01:59:06.680Z,39.40
2023-04-01T02:00:06.743Z,39.37
2023-04-01T02:01:06.851Z,39.43
2023-04-01T02:02:06.905Z,39.40
2023-04-01T02:03:07.030Z,39.41
2023-04-01T02:04:07.080Z,39.40
2023-04-01T02:05:07.131Z,39.41
2023-04-01T02:06:07.229Z,39.41
2023-04-01T02:07:07.302Z,39.45
2023-04-01T02:08:07.387Z,39.41
2023-04-01T02:09:07.451Z,39.45
2023-04-01T02:10:07.549Z,39.48
2023-04-01T02:11:07.625Z,39.44
2023-04-01T02:12:07.712Z,39.46
2023-04-01T02:13:07.789Z,39.42
2023-04-01T02:14:07.863Z,39.42
2023-04-01T02:15:07.940Z,39.43
2023-04-01T02:16:08.083Z,39.49
2023-04-01T02:17:08.135Z,39.47
2023-04-01T02:18:14.177Z,39.40
2023-04-01T02:19:08.439Z,39.45
2023-04-01T02:20:08.397Z,39.43
2023-04-01T02:21:08.476Z,39.43
2023-04-01T02:22:08.627Z,39.44
2023-04-01T02:23:08.647Z,39.48
2023-04-01T02:24:08.701Z,39.47
2023-04-01T02:25:08.806Z,39.46
2023-04-01T02:26:08.882Z,39.50
2023-04-01T02:27:08.961Z,39.47
2023-04-01T02:28:09.032Z,39.45
2023-04-01T02:29:09.116Z,39.43
2023-04-01T02:30:09.202Z,39.43
2023-04-01T02:31:09.283Z,39.42
2023-04-01T02:32:09.339Z,39.45
2023-04-01T02:33:09.434Z,39.49
2023-04-01T02:34:09.498Z,39.45
2023-04-01T02:35:09.562Z,39.44
2023-04-01T02:36:09.679Z,39.44
2023-04-01T02:37:09.733Z,39.46
2023-04-01T02:38:09.816Z,39.42
2023-04-01T02:39:09.877Z,39.44
2023-04-01T02:40:09.963Z,39.50
2023-04-01T02:41:10.043Z,39.47
2023-04-01T02:42:10.103Z,39.50
2023-04-01T02:43:10.173Z,39.47
2023-04-01T02:44:10.254Z,39.42
2023-04-01T02:45:10.343Z,39.47
2023-04-01T02:46:10.459Z,39.47
2023-04-01T02:47:10.544Z,39.49
2023-04-01T02:48:10.591Z,39.47
2023-04-01T02:49:16.656Z,39.46
2023-04-01T02:50:10.760Z,39.47
2023-04-01T02:51:10.860Z,39.50
2023-04-01T02:52:10.949Z,39.54
2023-04-01T02:53:11.017Z,39.50
2023-04-01T02:54:11.084Z,39.50
2023-04-01T02:55:11.166Z,39.48
2023-04-01T02:56:11.231Z,39.46
2023-04-01T02:57:11.330Z,39.45
2023-04-01T02:58:11.395Z,39.44
2023-04-01T02:59:11.472Z,39.49
2023-04-01T03:00:11.543Z,39.42
2023-04-01T03:01:11.632Z,39.48
2023-04-01T03:02:11.710Z,39.47
2023-04-01T03:03:11.810Z,39.45
2023-04-01T03:04:11.867Z,39.46
2023-04-01T03:05:11.988Z,39.44
2023-04-01T03:06:12.021Z,39.44
2023-04-01T03:07:12.104Z,39.43
2023-04-01T03:08:12.158Z,39.46
2023-04-01T03:09:12.270Z,39.48
2023-04-01T03:10:12.348Z,39.52
2023-04-01T03:11:12.413Z,39.48
2023-04-01T03:12:12.482Z,39.48
2023-04-01T03:13:12.574Z,39.48
2023-04-01T03:14:12.643Z,39.44
2023-04-01T03:15:12.727Z,39.46
2023-04-01T03:16:12.843Z,39.43
2023-04-01T03:17:12.880Z,39.45
2023-04-01T03:18:12.958Z,39.49
2023-04-01T03:19:13.035Z,39.44
2023-04-01T03:20:19.164Z,39.48
2023-04-01T03:21:13.180Z,39.45
2023-04-01T03:22:13.250Z,39.47
2023-04-01T03:23:13.348Z,39.53
2023-04-01T03:24:13.444Z,39.50
2023-04-01T03:25:13.526Z,39.46
2023-04-01T03:26:13.626Z,39.46
2023-04-01T03:27:13.689Z,39.46
2023-04-01T03:28:13.761Z,39.49
2023-04-01T03:29:13.831Z,39.44
2023-04-01T03:30:13.970Z,39.46
2023-04-01T03:31:14.132Z,39.44
2023-04-01T03:32:14.093Z,39.48
2023-04-01T03:33:14.167Z,39.43
2023-04-01T03:34:14.240Z,39.48
2023-04-01T03:35:14.316Z,39.47
2023-04-01T03:36:14.439Z,39.49
2023-04-01T03:37:14.472Z,39.46
2023-04-01T03:38:14.545Z,39.44
2023-04-01T03:39:14.616Z,39.45
2023-04-01T03:40:14.702Z,39.48
2023-04-01T03:41:14.791Z,39.45
2023-04-01T03:42:14.845Z,39.51
2023-04-01T03:43:15.003Z,39.44
2023-04-01T03:44:14.985Z,39.46
2023-04-01T03:45:15.073Z,39.45
2023-04-01T03:46:15.181Z,39.47
2023-04-01T03:47:15.210Z,39.48
2023-04-01T03:48:15.284Z,39.45
2023-04-01T03:49:15.370Z,39.44
2023-04-01T03:50:15.428Z,39.46
2023-04-01T03:51:21.480Z,39.47
2023-04-01T03:52:15.577Z,39.48
2023-04-01T03:53:15.672Z,39.45
2023-04-01T03:54:15.750Z,39.50
2023-04-01T03:55:15.837Z,39.51
2023-04-01T03:56:15.906Z,39.51
2023-04-01T03:57:16.040Z,39.51
2023-04-01T03:58:16.062Z,39.48
2023-04-01T03:59:16.132Z,39.48
2023-04-01T04:00:16.236Z,39.48
2023-04-01T04:01:16.307Z,39.48
2023-04-01T04:02:16.393Z,39.52
2023-04-01T04:03:16.563Z,39.45
2023-04-01T04:04:16.581Z,39.48
2023-04-01T04:05:16.636Z,39.48
2023-04-01T04:06:16.711Z,39.45
2023-04-01T04:07:16.750Z,39.46
2023-04-01T04:08:16.840Z,39.48
2023-04-01T04:09:16.895Z,39.49
2023-04-01T04:10:16.979Z,39.49
2023-04-01T04:11:17.082Z,39.49
2023-04-01T04:12:17.143Z,39.49
2023-04-01T04:13:17.220Z,39.48
2023-04-01T04:14:17.301Z,39.51
2023-04-01T04:15:17.374Z,39.49
2023-04-01T04:16:17.488Z,39.49
2023-04-01T04:17:17.545Z,39.49
2023-04-01T04:18:17.610Z,39.47
2023-04-01T04:19:17.683Z,39.46
2023-04-01T04:20:17.757Z,39.48
2023-04-01T04:21:17.832Z,39.49
2023-04-01T04:22:24.203Z,39.48
2023-04-01T04:23:17.972Z,39.57
2023-04-01T04:24:18.077Z,39.57
2023-04-01T04:25:18.145Z,39.51
2023-04-01T04:26:18.219Z,39.50
2023-04-01T04:27:18.312Z,39.46
2023-04-01T04:28:18.390Z,39.47
2023-04-01T04:29:18.452Z,39.47
2023-04-01T04:30:18.557Z,39.49
2023-04-01T04:31:18.679Z,39.52
2023-04-01T04:32:18.726Z,39.48
2023-04-01T04:33:18.793Z,39.52
2023-04-01T04:34:18.898Z,39.49
2023-04-01T04:35:18.994Z,39.47
2023-04-01T04:36:19.067Z,39.49
2023-04-01T04:37:19.147Z,39.50
2023-04-01T04:38:19.268Z,39.50
2023-04-01T04:39:19.303Z,39.51
2023-04-01T04:40:19.380Z,39.50
2023-04-01T04:41:19.457Z,39.50
2023-04-01T04:42:19.531Z,39.52
2023-04-01T04:43:19.677Z,39.49
2023-04-01T04:44:19.683Z,39.50
2023-04-01T04:45:19.755Z,39.53
2023-04-01T04:46:19.858Z,39.48
2023-04-01T04:47:19.937Z,39.51
2023-04-01T04:48:20.197Z,39.51
2023-04-01T04:49:20.032Z,39.53
2023-04-01T04:50:20.166Z,39.51
2023-04-01T04:51:20.235Z,39.53
2023-04-01T04:52:20.336Z,39.50
2023-04-01T04:53:26.365Z,39.48
2023-04-01T04:54:20.466Z,39.54
2023-04-01T04:55:20.538Z,39.54
2023-04-01T04:56:20.641Z,39.51
2023-04-01T04:57:20.714Z,39.55
2023-04-01T04:58:20.776Z,39.51
2023-04-01T04:59:20.841Z,39.49
2023-04-01T05:00:20.943Z,39.50
2023-04-01T05:01:21.102Z,39.52
2023-04-01T05:02:21.158Z,39.46
2023-04-01T05:03:21.332Z,39.53
2023-04-01T05:04:21.266Z,39.56
2023-04-01T05:05:21.344Z,39.49
2023-04-01T05:06:23.459Z,39.45
2023-04-01T05:07:21.524Z,39.48
2023-04-01T05:08:21.569Z,39.50
2023-04-01T05:09:21.673Z,39.51
2023-04-01T05:10:21.751Z,39.47
2023-04-01T05:11:21.811Z,39.51
2023-04-01T05:12:21.887Z,39.51
2023-04-01T05:13:22.091Z,39.49
2023-04-01T05:14:22.101Z,39.51
2023-04-01T05:15:22.141Z,39.51
2023-04-01T05:16:22.286Z,39.49
2023-04-01T05:17:22.338Z,39.49
2023-04-01T05:18:22.356Z,39.50
2023-04-01T05:19:22.443Z,39.46
2023-04-01T05:20:22.484Z,39.49
2023-04-01T05:21:22.586Z,39.47
2023-04-01T05:22:22.660Z,39.51
2023-04-01T05:23:22.774Z,39.45
2023-04-01T05:24:29.211Z,39.43
2023-04-01T05:25:22.873Z,39.50
2023-04-01T05:26:22.949Z,39.46
2023-04-01T05:27:23.021Z,39.48
2023-04-01T05:28:23.095Z,39.49
2023-04-01T05:29:23.174Z,39.43
2023-04-01T05:30:23.244Z,39.52
2023-04-01T05:31:23.352Z,39.49
2023-04-01T05:32:23.422Z,39.47
2023-04-01T05:33:23.485Z,39.46
2023-04-01T05:34:23.561Z,39.47
2023-04-01T05:35:23.676Z,39.42
2023-04-01T05:36:23.726Z,39.45
2023-04-01T05:37:23.794Z,39.41
2023-04-01T05:38:23.867Z,39.38
2023-04-01T05:39:23.947Z,39.40
2023-04-01T05:40:24.070Z,39.37
2023-04-01T05:41:24.163Z,39.37
2023-04-01T05:42:24.307Z,39.39
2023-04-01T05:43:24.315Z,39.42
2023-04-01T05:44:24.366Z,39.33
2023-04-01T05:45:24.435Z,39.35
2023-04-01T05:46:24.541Z,39.33
2023-04-01T05:47:24.642Z,39.37
2023-04-01T05:48:24.654Z,39.40
2023-04-01T05:49:26.295Z,39.34
2023-04-01T05:50:24.805Z,39.32
2023-04-01T05:51:24.861Z,39.31
2023-04-01T05:52:24.961Z,39.31
2023-04-01T05:53:25.032Z,39.30
2023-04-01T05:54:25.092Z,39.32
2023-04-01T05:55:31.341Z,39.36
2023-04-01T05:56:25.244Z,39.34
2023-04-01T05:57:25.397Z,39.32
2023-04-01T05:58:25.406Z,39.36
2023-04-01T05:59:25.468Z,39.30
2023-04-01T06:00:25.549Z,39.31
2023-04-01T06:01:25.626Z,39.32
2023-04-01T06:02:25.884Z,39.32
2023-04-01T06:03:25.922Z,39.30
2023-04-01T06:04:25.971Z,39.31
2023-04-01T06:05:25.937Z,39.32
2023-04-01T06:06:26.012Z,39.33
2023-04-01T06:07:26.090Z,39.27
2023-04-01T06:08:26.157Z,39.35
2023-04-01T06:09:26.270Z,39.29
2023-04-01T06:10:26.328Z,39.29
2023-04-01T06:11:26.441Z,39.28
2023-04-01T06:12:26.499Z,39.36
2023-04-01T06:13:26.598Z,39.31
2023-04-01T06:14:26.666Z,39.28
2023-04-01T06:15:26.794Z,39.26
2023-04-01T06:16:26.895Z,39.28
2023-04-01T06:17:26.919Z,39.25
2023-04-01T06:18:26.970Z,39.22
2023-04-01T06:19:27.033Z,39.19
2023-04-01T06:20:27.156Z,39.18
2023-04-01T06:21:27.185Z,39.18
2023-04-01T06:22:27.231Z,39.17
2023-04-01T06:23:27.299Z,39.17
2023-04-01T06:24:27.398Z,39.15
2023-04-01T06:25:27.476Z,39.20
2023-04-01T06:26:33.758Z,39.21
2023-04-01T06:27:27.617Z,39.24
2023-04-01T06:28:27.701Z,39.15
2023-04-01T06:29:27.769Z,39.20
2023-04-01T06:30:27.871Z,39.14
2023-04-01T06:31:28.006Z,39.17
2023-04-01T06:32:28.075Z,39.18
2023-04-01T06:33:28.099Z,39.17
2023-04-01T06:34:28.150Z,39.19
2023-04-01T06:35:28.248Z,39.16
2023-04-01T06:36:28.367Z,39.12
2023-04-01T06:37:28.425Z,39.04
2023-04-01T06:38:28.488Z,39.10
2023-04-01T06:39:28.559Z,39.12
2023-04-01T06:40:28.626Z,39.09
2023-04-01T06:41:28.696Z,39.02
2023-04-01T06:42:28.775Z,39.13
2023-04-01T06:43:28.841Z,39.09
2023-04-01T06:44:28.941Z,39.09
2023-04-01T06:45:29.014Z,39.05
2023-04-01T06:46:29.171Z,39.11
2023-04-01T06:47:29.235Z,39.05
2023-04-01T06:48:29.253Z,39.07
2023-04-01T06:49:29.323Z,39.04
2023-04-01T06:50:29.425Z,39.01
2023-04-01T06:51:29.491Z,39.01
2023-04-01T06:52:29.561Z,39.01
2023-04-01T06:53:29.632Z,38.98
2023-04-01T06:54:29.734Z,38.96
2023-04-01T06:55:29.816Z,38.97
2023-04-01T06:56:29.904Z,38.94
2023-04-01T06:57:35.946Z,38.93
2023-04-01T06:58:30.112Z,38.97
2023-04-01T06:59:30.147Z,38.95
2023-04-01T07:00:30.252Z,38.96
2023-04-01T07:01:30.358Z,38.93
2023-04-01T07:02:30.437Z,38.90
2023-04-01T07:03:30.488Z,38.94
2023-04-01T07:04:30.595Z,38.94
2023-04-01T07:05:30.896Z,38.95
2023-04-01T07:06:30.724Z,38.93
2023-04-01T07:07:30.815Z,38.89
2023-04-01T07:08:30.875Z,38.88
2023-04-01T07:09:30.977Z,38.84
2023-04-01T07:10:31.056Z,38.79
2023-04-01T07:11:31.125Z,38.81
2023-04-01T07:12:31.220Z,38.80
2023-04-01T07:13:32.161Z,38.78
2023-04-01T07:14:31.391Z,38.76
2023-04-01T07:15:31.858Z,38.76
2023-04-01T07:16:31.547Z,38.76
2023-04-01T07:17:31.669Z,38.69
2023-04-01T07:18:31.711Z,38.72
2023-04-01T07:19:31.791Z,38.65
2023-04-01T07:20:31.853Z,38.66
2023-04-01T07:21:33.100Z,38.65
2023-04-01T07:22:32.032Z,38.64
2023-04-01T07:23:32.120Z,38.62
2023-04-01T07:24:32.192Z,38.65
2023-04-01T07:25:32.553Z,38.65
2023-04-01T07:26:32.345Z,38.63
2023-04-01T07:27:32.438Z,38.59
2023-04-01T07:28:38.792Z,38.54
2023-04-01T07:29:32.578Z,38.59
2023-04-01T07:30:32.668Z,38.58
2023-04-01T07:31:32.912Z,38.53
2023-04-01T07:32:34.740Z,38.55
2023-04-01T07:33:32.921Z,38.55
2023-04-01T07:34:33.005Z,38.58
2023-04-01T07:35:33.240Z,38.55
2023-04-01T07:36:33.161Z,38.49
2023-04-01T07:37:33.231Z,38.49
2023-04-01T07:38:33.360Z,38.59
2023-04-01T07:39:33.401Z,38.51
2023-04-01T07:40:33.500Z,38.49
2023-04-01T07:41:33.585Z,38.47
2023-04-01T07:42:33.644Z,38.45
2023-04-01T07:43:33.718Z,38.44
2023-04-01T07:44:33.795Z,38.46
2023-04-01T07:45:34.439Z,38.49
2023-04-01T07:46:34.019Z,38.45
2023-04-01T07:47:34.033Z,38.46
2023-04-01T07:48:34.084Z,38.46
2023-04-01T07:49:34.163Z,38.48
2023-04-01T07:50:34.250Z,38.46
2023-04-01T07:51:34.336Z,38.45
2023-04-01T07:52:34.407Z,38.47
2023-04-01T07:53:34.483Z,38.44
2023-04-01T07:54:34.594Z,38.42
2023-04-01T07:55:34.977Z,38.40
2023-04-01T07:56:34.733Z,38.39
2023-04-01T07:57:34.809Z,38.36
2023-04-01T07:58:34.871Z,38.43
2023-04-01T07:59:40.929Z,38.41
2023-04-01T08:00:35.032Z,38.39
2023-04-01T08:01:35.097Z,38.42
2023-04-01T08:02:35.236Z,38.40
2023-04-01T08:03:35.359Z,38.44
2023-04-01T08:04:35.421Z,38.45
2023-04-01T08:05:35.594Z,38.49
2023-04-01T08:06:35.447Z,38.39
2023-04-01T08:07:35.541Z,38.38
2023-04-01T08:08:35.607Z,38.36
2023-04-01T08:09:35.676Z,38.37
2023-04-01T08:10:35.754Z,38.43
2023-04-01T08:11:35.851Z,38.35
2023-04-01T08:12:35.945Z,38.35
2023-04-01T08:13:36.037Z,38.37
2023-04-01T08:14:36.117Z,38.37
2023-04-01T08:15:36.186Z,38.33
2023-04-01T08:16:36.278Z,38.35
2023-04-01T08:17:36.369Z,38.38
2023-04-01T08:18:36.440Z,38.35
2023-04-01T08:19:36.528Z,38.40
2023-04-01T08:20:36.598Z,38.38
2023-04-01T08:21:36.675Z,38.38
2023-04-01T08:22:36.740Z,38.43
2023-04-01T08:23:36.820Z,38.43
2023-04-01T08:24:46.368Z,38.39
2023-04-01T08:25:36.993Z,38.41
2023-04-01T08:26:37.048Z,38.35
2023-04-01T08:27:37.109Z,38.39
2023-04-01T08:28:37.187Z,38.32
2023-04-01T08:29:37.250Z,38.35
2023-04-01T08:30:43.816Z,38.31
2023-04-01T08:31:37.471Z,38.31
2023-04-01T08:32:37.518Z,38.36
2023-04-01T08:33:37.574Z,38.37
2023-04-01T08:34:37.638Z,38.34
2023-04-01T08:35:38.607Z,38.35
2023-04-01T08:36:37.793Z,38.34
2023-04-01T08:37:37.864Z,38.33
2023-04-01T08:38:37.939Z,38.37
2023-04-01T08:39:38.022Z,38.33
2023-04-01T08:40:38.095Z,38.33
2023-04-01T08:41:38.178Z,38.31
2023-04-01T08:42:38.262Z,38.39
2023-04-01T08:43:38.337Z,38.32
2023-04-01T08:44:38.404Z,38.39
2023-04-01T08:45:38.503Z,38.38
2023-04-01T08:46:38.800Z,38.33
2023-04-01T08:47:38.702Z,38.40
2023-04-01T08:48:38.716Z,38.45
2023-04-01T08:49:38.782Z,38.39
2023-04-01T08:50:38.864Z,38.47
2023-04-01T08:51:38.942Z,38.39
2023-04-01T08:52:39.070Z,38.45
2023-04-01T08:53:39.146Z,38.40
2023-04-01T08:54:39.208Z,38.37
2023-04-01T08:55:39.305Z,38.46
2023-04-01T08:56:39.376Z,38.31
2023-04-01T08:57:39.441Z,38.44
2023-04-01T08:58:39.533Z,38.41
2023-04-01T08:59:39.605Z,38.36
2023-04-01T09:00:39.675Z,38.46
2023-04-01T09:01:45.783Z,38.54
2023-04-01T09:02:39.843Z,38.41
2023-04-01T09:03:40.042Z,38.68
2023-04-01T09:04:40.034Z,38.70
2023-04-01T09:05:40.082Z,38.64
2023-04-01T09:06:40.169Z,39.48
2023-04-01T09:07:40.231Z,38.74
2023-04-01T09:08:40.316Z,38.44
2023-04-01T09:09:40.400Z,38.52
2023-04-01T09:10:40.458Z,38.76
2023-04-01T09:11:40.552Z,38.47
2023-04-01T09:12:40.621Z,38.52
2023-04-01T09:13:40.700Z,38.94
2023-04-01T09:14:40.786Z,38.75
2023-04-01T09:15:40.939Z,38.94
2023-04-01T09:16:40.923Z,38.92
2023-04-01T09:17:41.053Z,38.83
2023-04-01T09:18:41.088Z,38.80
2023-04-01T09:19:41.145Z,39.48
2023-04-01T09:20:41.235Z,39.40
2023-04-01T09:21:41.314Z,39.23
2023-04-01T09:22:41.383Z,39.61
2023-04-01T09:23:41.486Z,39.06
2023-04-01T09:24:41.553Z,39.13
2023-04-01T09:25:41.645Z,39.20
2023-04-01T09:26:41.739Z,39.75
2023-04-01T09:27:41.794Z,39.54
2023-04-01T09:28:41.874Z,39.29
2023-04-01T09:29:41.932Z,39.70
2023-04-01T09:30:42.017Z,39.46
2023-04-01T09:31:42.139Z,39.88
2023-04-01T09:32:48.190Z,39.78
2023-04-01T09:33:42.249Z,38.54
2023-04-01T09:34:42.327Z,38.95
2023-04-01T09:35:42.420Z,39.10
2023-04-01T09:36:42.477Z,39.84
2023-04-01T09:37:42.565Z,39.59
2023-04-01T09:38:42.631Z,38.93
2023-04-01T09:39:42.700Z,38.94
2023-04-01T09:40:42.772Z,39.02
2023-04-01T09:41:42.833Z,38.80
2023-04-01T09:42:42.948Z,38.66
2023-04-01T09:43:42.981Z,39.45
2023-04-01T09:44:43.058Z,39.55
2023-04-01T09:45:43.139Z,38.99
2023-04-01T09:46:43.377Z,38.73
2023-04-01T09:47:43.328Z,38.30
2023-04-01T09:48:43.637Z,38.82
2023-04-01T09:49:43.499Z,38.54
2023-04-01T09:50:43.618Z,38.17
2023-04-01T09:51:43.617Z,38.08
2023-04-01T09:52:45.361Z,38.67
2023-04-01T09:53:43.794Z,38.01
2023-04-01T09:54:43.895Z,38.83
2023-04-01T09:55:43.955Z,38.12
2023-04-01T09:56:44.038Z,37.99
2023-04-01T09:57:44.100Z,37.92
2023-04-01T09:58:44.359Z,38.02
2023-04-01T09:59:44.266Z,37.86
2023-04-01T10:00:44.336Z,38.14
2023-04-01T10:01:44.515Z,38.04
2023-04-01T10:02:44.538Z,37.98
2023-04-01T10:03:50.554Z,37.82
2023-04-01T10:04:44.657Z,37.79
2023-04-01T10:05:44.786Z,37.72
2023-04-01T10:06:44.824Z,37.96
2023-04-01T10:07:44.907Z,37.88
2023-04-01T10:08:44.990Z,37.84
2023-04-01T10:09:45.081Z,37.79
2023-04-01T10:10:45.158Z,37.80
2023-04-01T10:11:45.233Z,37.84
2023-04-01T10:12:45.313Z,37.73
2023-04-01T10:13:45.382Z,37.83
2023-04-01T10:14:45.457Z,37.67
2023-04-01T10:15:45.517Z,37.72
2023-04-01T10:16:45.634Z,37.68
2023-04-01T10:17:45.692Z,37.85
2023-04-01T10:18:45.738Z,37.67
2023-04-01T10:19:45.812Z,37.82
2023-04-01T10:20:45.890Z,37.73
2023-04-01T10:21:45.973Z,37.79
2023-04-01T10:22:46.044Z,37.80
2023-04-01T10:23:46.115Z,38.06
2023-04-01T10:24:46.213Z,37.78
2023-04-01T10:25:46.271Z,38.25
2023-04-01T10:26:46.348Z,37.98
2023-04-01T10:27:46.429Z,38.33
2023-04-01T10:28:46.515Z,38.62
2023-04-01T10:29:46.576Z,38.01
2023-04-01T10:30:46.680Z,38.47
2023-04-01T10:31:46.840Z,39.02
2023-04-01T10:32:46.861Z,38.20
2023-04-01T10:33:46.930Z,38.72
2023-04-01T10:34:52.975Z,38.57
2023-04-01T10:35:47.088Z,38.69
2023-04-01T10:36:47.178Z,38.95
2023-04-01T10:37:47.254Z,38.70
2023-04-01T10:38:47.328Z,38.58
2023-04-01T10:39:47.422Z,38.83
2023-04-01T10:40:47.497Z,38.72
2023-04-01T10:41:47.617Z,38.63
2023-04-01T10:42:47.721Z,38.73
2023-04-01T10:43:47.772Z,38.66
2023-04-01T10:44:47.844Z,38.68
2023-04-01T10:45:47.942Z,38.67
2023-04-01T10:46:47.986Z,38.61
2023-04-01T10:47:48.104Z,38.68
2023-04-01T10:48:48.140Z,38.62
2023-04-01T10:49:48.225Z,38.48
2023-04-01T10:50:48.300Z,38.57
2023-04-01T10:51:48.389Z,38.51
2023-04-01T10:52:48.448Z,38.55
2023-04-01T10:53:48.531Z,38.43
2023-04-01T10:54:48.614Z,38.40
2023-04-01T10:55:48.693Z,38.47
2023-04-01T10:56:48.785Z,38.37
2023-04-01T10:57:48.873Z,38.42
2023-04-01T10:58:48.948Z,38.35
2023-04-01T10:59:49.029Z,38.42
2023-04-01T11:00:49.146Z,38.28
2023-04-01T11:01:54.936Z,38.32
2023-04-01T11:02:49.406Z,38.32
2023-04-01T11:03:49.465Z,38.32
2023-04-01T11:04:49.448Z,38.24
2023-04-01T11:05:55.496Z,38.37
2023-04-01T11:06:49.599Z,38.26
2023-04-01T11:08:02.835Z,38.33
2023-04-01T11:08:49.798Z,38.40
2023-04-01T11:09:49.883Z,38.35
2023-04-01T11:10:49.940Z,38.41
2023-04-01T11:11:50.015Z,38.32
2023-04-01T11:12:50.098Z,38.31
2023-04-01T11:13:50.195Z,38.25
2023-04-01T11:14:50.257Z,38.18
2023-04-01T11:15:50.364Z,38.30
2023-04-01T11:16:50.423Z,38.27
2023-04-01T11:17:50.529Z,38.33
2023-04-01T11:18:50.610Z,38.37
2023-04-01T11:19:50.688Z,38.40
2023-04-01T11:20:50.726Z,38.60
2023-04-01T11:21:50.832Z,38.66
2023-04-01T11:22:50.868Z,38.86
2023-04-01T11:24:03.906Z,38.70
2023-04-01T11:24:51.028Z,38.93
2023-04-01T11:25:51.094Z,38.91
2023-04-01T11:26:51.200Z,38.83
2023-04-01T11:27:51.245Z,38.90
2023-04-01T11:28:51.325Z,38.96
2023-04-01T11:29:59.627Z,38.92
2023-04-01T11:30:51.488Z,38.85
2023-04-01T11:31:51.668Z,38.84
2023-04-01T11:32:51.674Z,38.88
2023-04-01T11:33:51.736Z,38.91
2023-04-01T11:34:51.797Z,38.90
2023-04-01T11:35:51.888Z,38.57
2023-04-01T11:36:58.005Z,38.64
2023-04-01T11:37:52.013Z,38.56
2023-04-01T11:38:52.111Z,38.59
2023-04-01T11:39:52.167Z,38.62
2023-04-01T11:40:52.258Z,38.61
2023-04-01T11:41:52.336Z,38.62
2023-04-01T11:42:52.458Z,38.66
2023-04-01T11:43:52.511Z,38.71
2023-04-01T11:44:52.563Z,38.69
2023-04-01T11:45:52.696Z,38.67
2023-04-01T11:46:52.756Z,38.67
2023-04-01T11:47:52.893Z,38.74
2023-04-01T11:48:52.932Z,38.79
2023-04-01T11:49:53.006Z,38.82
2023-04-01T11:50:53.087Z,38.87
2023-04-01T11:51:53.144Z,38.93
2023-04-01T11:52:53.225Z,38.80
2023-04-01T11:53:53.303Z,38.89
2023-04-01T11:54:53.390Z,38.94
2023-04-01T11:55:53.473Z,38.83
2023-04-01T11:56:53.596Z,38.84
2023-04-01T11:57:53.657Z,38.27
2023-04-01T11:58:53.717Z,38.04
2023-04-01T11:59:53.808Z,38.74
2023-04-01T12:00:53.949Z,38.65
2023-04-01T12:01:54.004Z,37.97
2023-04-01T12:02:54.172Z,37.95
2023-04-01T12:03:54.416Z,38.73
2023-04-01T12:04:54.339Z,38.19
2023-04-01T12:05:54.327Z,38.11
2023-04-01T12:06:54.424Z,38.04
2023-04-01T12:08:00.487Z,38.60
2023-04-01T12:08:55.583Z,38.26
2023-04-01T12:09:54.687Z,38.73
2023-04-01T12:10:54.753Z,38.66
2023-04-01T12:11:54.834Z,38.36
2023-04-01T12:13:01.365Z,38.87
2023-04-01T12:13:55.034Z,38.73
2023-04-01T12:14:55.075Z,38.97
2023-04-01T12:15:55.190Z,38.86
2023-04-01T12:16:55.224Z,38.65
2023-04-01T12:17:55.338Z,38.03
2023-04-01T12:18:55.402Z,38.30
2023-04-01T12:19:55.474Z,38.28
2023-04-01T12:20:55.559Z,38.07
2023-04-01T12:21:55.634Z,37.98
2023-04-01T12:22:55.723Z,38.23
2023-04-01T12:23:55.811Z,38.45
2023-04-01T12:24:55.898Z,37.87
2023-04-01T12:25:55.958Z,38.16
2023-04-01T12:26:56.087Z,38.34
2023-04-01T12:27:56.133Z,38.50
2023-04-01T12:28:56.207Z,38.61
2023-04-01T12:29:56.303Z,38.65
2023-04-01T12:30:56.353Z,38.69
2023-04-01T12:31:56.437Z,38.62
2023-04-01T12:32:56.520Z,38.58
2023-04-01T12:33:56.570Z,38.73
2023-04-01T12:34:56.658Z,38.83
2023-04-01T12:35:56.785Z,38.82
2023-04-01T12:36:56.791Z,38.79
2023-04-01T12:37:56.879Z,38.89
2023-04-01T12:39:02.937Z,38.81
2023-04-01T12:39:57.098Z,38.83
2023-04-01T12:40:57.157Z,38.96
2023-04-01T12:41:57.235Z,38.70
2023-04-01T12:42:57.316Z,38.82
2023-04-01T12:43:57.407Z,38.79
2023-04-01T12:44:57.474Z,38.64
2023-04-01T12:45:57.582Z,38.62
2023-04-01T12:46:57.651Z,38.82
2023-04-01T12:47:57.770Z,38.77
2023-04-01T12:48:57.778Z,38.62
2023-04-01T12:49:57.861Z,38.76
2023-04-01T12:50:57.930Z,38.80
2023-04-01T12:51:58.023Z,38.74
2023-04-01T12:52:58.098Z,38.70
2023-04-01T12:53:58.187Z,38.71